createdAt,value
2018-09-21T00:00:17.333Z,96311.47
2018-09-21T00:01:55.178Z,96316.22
2018-09-21T00:03:34.177Z,96309.68
2018-09-21T00:05:12.956Z,96309.27
2018-09-21T00:06:53.675Z,96312.32
2018-09-21T00:08:34.758Z,96306.63
2018-09-21T00:10:14.685Z,96311.69
2018-09-21T00:11:54.536Z,96308.17
2018-09-21T00:13:32.958Z,96309.17
2018-09-21T00:15:16.338Z,96308.83
2018-09-21T00:16:55.934Z,96316.22
2018-09-21T00:18:33.986Z,96311.31
2018-09-21T00:20:14.606Z,96310.18
2018-09-21T00:21:53.441Z,96308.55
2018-09-21T00:23:32.076Z,96303.39
2018-09-21T00:25:08.812Z,96310.41
2018-09-21T00:26:46.954Z,96315.72
2018-09-21T00:28:26.089Z,96311.53
2018-09-21T00:30:03.133Z,96308.27
2018-09-21T00:31:41.799Z,96307.54
2018-09-21T00:33:20.688Z,96311.31
2018-09-21T00:34:57.509Z,96303.16
2018-09-21T00:36:34.346Z,96310.08
2018-09-21T00:38:10.071Z,96308.45
2018-09-21T00:42:41.108Z,96296.73
2018-09-21T00:44:20.040Z,96300.65
2018-09-21T00:46:00.970Z,96293.73
2018-09-21T00:47:42.108Z,96292.95
2018-09-21T00:49:21.078Z,96292.73
2018-09-21T00:51:02.608Z,96288.33
2018-09-21T00:52:47.069Z,96297.00
2018-09-21T00:54:31.139Z,96293.73
2018-09-21T00:56:08.894Z,96289.59
2018-09-21T00:57:47.822Z,96294.11
2018-09-21T00:59:27.517Z,96285.28
2018-09-21T01:01:17.580Z,96285.78
2018-09-21T01:02:52.954Z,96284.40
2018-09-21T01:04:32.647Z,96282.27
2018-09-21T01:06:08.081Z,96286.81
2018-09-21T01:07:45.173Z,96281.53
2018-09-21T01:09:20.537Z,96277.36
2018-09-21T01:10:56.555Z,96272.73
2018-09-21T01:12:31.566Z,96276.98
2018-09-21T01:14:06.864Z,96269.30
2018-09-21T01:15:42.080Z,96271.82
2018-09-21T01:17:17.365Z,96268.27
2018-09-21T01:18:52.887Z,96264.11
2018-09-21T01:20:27.976Z,96266.91
2018-09-21T01:22:03.503Z,96272.20
2018-09-21T01:23:38.624Z,96262.51
2018-09-21T01:25:13.947Z,96265.87
2018-09-21T01:26:50.990Z,96266.41
2018-09-21T01:28:26.602Z,96262.64
2018-09-21T01:30:01.680Z,96264.94
2018-09-21T01:31:38.146Z,96262.67
2018-09-21T01:33:13.820Z,96257.52
2018-09-21T01:34:50.043Z,96251.07
2018-09-21T01:36:25.063Z,96244.06
2018-09-21T01:38:01.947Z,96247.45
2018-09-21T01:39:37.456Z,96240.80
2018-09-21T01:41:12.764Z,96241.80
2018-09-21T01:42:48.500Z,96241.55
2018-09-21T01:44:23.699Z,96234.89
2018-09-21T01:45:59.437Z,96232.12
2018-09-21T01:47:34.957Z,96225.86
2018-09-21T01:49:09.994Z,96224.32
2018-09-21T01:50:45.386Z,96227.09
2018-09-21T01:52:21.349Z,96223.98
2018-09-21T01:53:56.459Z,96220.42
2018-09-21T01:55:31.528Z,96209.02
2018-09-21T01:57:06.527Z,96213.01
2018-09-21T01:58:41.793Z,96209.11
2018-09-21T02:00:16.974Z,96204.33
2018-09-21T02:01:52.186Z,96208.48
2018-09-21T02:03:27.183Z,96195.56
2018-09-21T02:05:02.681Z,96198.30
2018-09-21T02:06:37.759Z,96188.73
2018-09-21T02:08:13.254Z,96196.03
2018-09-21T02:09:48.133Z,96196.91
2018-09-21T02:11:23.340Z,96194.65
2018-09-21T02:12:59.039Z,96192.30
2018-09-21T02:14:34.197Z,96188.53
2018-09-21T02:16:09.521Z,96191.89
2018-09-21T02:17:44.612Z,96186.27
2018-09-21T02:19:20.232Z,96184.47
2018-09-21T02:20:56.079Z,96181.45
2018-09-21T02:22:31.293Z,96180.70
2018-09-21T02:24:06.690Z,96171.14
2018-09-21T02:25:41.948Z,96163.63
2018-09-21T02:27:17.259Z,96164.01
2018-09-21T02:28:52.630Z,96163.52
2018-09-21T02:30:27.705Z,96162.88
2018-09-21T02:32:02.708Z,96160.63
2018-09-21T02:33:37.998Z,96152.41
2018-09-21T02:35:13.151Z,96158.56
2018-09-21T02:36:48.688Z,96152.78
2018-09-21T02:38:24.097Z,96154.16
2018-09-21T02:39:59.346Z,96152.34
2018-09-21T02:41:34.389Z,96153.73
2018-09-21T02:43:09.760Z,96139.13
2018-09-21T02:44:45.291Z,96138.00
2018-09-21T02:46:20.676Z,96137.25
2018-09-21T02:47:55.917Z,96138.65
2018-09-21T02:49:32.008Z,96134.63
2018-09-21T02:51:07.236Z,96125.86
2018-09-21T02:52:42.657Z,96120.45
2018-09-21T02:54:19.984Z,96116.93
2018-09-21T02:55:55.271Z,96111.66
2018-09-21T02:57:30.617Z,96118.31
2018-09-21T02:59:06.082Z,96109.84
2018-09-21T03:00:43.924Z,96097.91
2018-09-21T03:02:19.214Z,96102.17
2018-09-21T03:03:55.758Z,96091.98
2018-09-21T03:05:31.317Z,96089.48
2018-09-21T03:07:06.440Z,96092.35
2018-09-21T03:08:41.842Z,96095.68
2018-09-21T03:10:17.072Z,96088.98
2018-09-21T03:11:52.299Z,96084.53
2018-09-21T03:13:28.110Z,96079.43
2018-09-21T03:15:05.416Z,96071.73
2018-09-21T03:16:41.117Z,96073.69
2018-09-21T03:18:16.438Z,96073.02
2018-09-21T03:19:52.724Z,96069.86
2018-09-21T03:21:28.672Z,96065.77
2018-09-21T03:23:04.102Z,96055.61
2018-09-21T03:24:39.458Z,96054.58
2018-09-21T03:26:14.678Z,96046.97
2018-09-21T03:27:50.096Z,96047.72
2018-09-21T03:29:25.715Z,96044.99
2018-09-21T03:31:01.041Z,96044.12
2018-09-21T03:32:36.261Z,96044.12
2018-09-21T03:34:11.506Z,96042.38
2018-09-21T03:35:46.700Z,96041.23
2018-09-21T03:37:21.963Z,96039.84
2018-09-21T03:38:57.330Z,96037.39
2018-09-21T03:40:41.857Z,96041.44
2018-09-21T03:42:17.568Z,96044.32
2018-09-21T03:43:53.518Z,96037.39
2018-09-21T03:45:28.551Z,96034.62
2018-09-21T03:47:04.272Z,96026.88
2018-09-21T03:48:39.364Z,96020.15
2018-09-21T03:50:14.644Z,96028.03
2018-09-21T03:51:50.714Z,96016.39
2018-09-21T03:53:25.632Z,96008.00
2018-09-21T03:55:00.783Z,96006.11
2018-09-21T03:56:36.525Z,96002.66
2018-09-21T03:58:11.549Z,96005.87
2018-09-21T03:59:47.252Z,95997.52
2018-09-21T04:01:22.521Z,95991.06
2018-09-21T04:02:57.916Z,95988.57
2018-09-21T04:04:32.912Z,95990.59
2018-09-21T04:06:08.331Z,95984.53
2018-09-21T04:07:43.672Z,95985.80
2018-09-21T04:09:18.865Z,95982.56
2018-09-21T04:10:53.809Z,95975.91
2018-09-21T04:12:29.312Z,95966.29
2018-09-21T04:14:04.301Z,95971.47
2018-09-21T04:15:39.932Z,95966.17
2018-09-21T04:17:15.138Z,95963.00
2018-09-21T04:18:51.214Z,95964.71
2018-09-21T04:20:26.594Z,95958.10
2018-09-21T04:22:02.138Z,95953.83
2018-09-21T04:23:38.939Z,95949.91
2018-09-21T04:25:15.568Z,95946.67
2018-09-21T04:26:51.888Z,95941.09
2018-09-21T04:28:27.514Z,95936.63
2018-09-21T04:30:04.088Z,95933.50
2018-09-21T04:31:40.029Z,95939.80
2018-09-21T04:33:15.051Z,95935.95
2018-09-21T04:34:52.114Z,95926.30
2018-09-21T04:36:31.251Z,95924.13
2018-09-21T04:38:06.966Z,95926.02
2018-09-21T04:39:42.921Z,95921.52
2018-09-21T04:41:17.948Z,95919.26
2018-09-21T04:42:53.519Z,95922.89
2018-09-21T04:44:28.614Z,95921.64
2018-09-21T04:46:04.204Z,95919.22
2018-09-21T04:47:39.250Z,95917.20
2018-09-21T04:49:14.707Z,95914.72
2018-09-21T04:50:50.174Z,95908.23
2018-09-21T04:52:26.480Z,95909.19
2018-09-21T04:54:02.921Z,95915.66
2018-09-21T04:55:39.190Z,95907.08
2018-09-21T04:57:15.650Z,95913.41
2018-09-21T04:58:51.995Z,95928.63
2018-09-21T05:00:27.605Z,95907.44
2018-09-21T05:02:04.090Z,95916.98
2018-09-21T05:03:41.648Z,95908.67
2018-09-21T05:05:17.101Z,95912.41
2018-09-21T05:06:54.281Z,95915.19
2018-09-21T05:08:34.243Z,95912.22
2018-09-21T05:10:11.946Z,95913.80
2018-09-21T05:11:49.249Z,95908.70
2018-09-21T05:13:29.751Z,95908.27
2018-09-21T05:15:09.103Z,95906.25
2018-09-21T05:16:46.388Z,95898.81
2018-09-21T05:18:24.031Z,95892.56
2018-09-21T05:20:01.705Z,95902.73
2018-09-21T05:21:38.435Z,95898.10
2018-09-21T05:23:16.348Z,95898.85
2018-09-21T05:24:54.634Z,95898.62
2018-09-21T05:26:32.052Z,95895.69
2018-09-21T05:28:07.375Z,95893.27
2018-09-21T05:29:42.631Z,95897.34
2018-09-21T05:31:18.410Z,95886.39
2018-09-21T05:32:53.850Z,95886.34
2018-09-21T05:34:29.197Z,95892.72
2018-09-21T05:36:09.335Z,95892.95
2018-09-21T05:37:44.803Z,95894.05
2018-09-21T05:39:20.248Z,95886.61
2018-09-21T05:40:55.691Z,95886.61
2018-09-21T05:42:31.076Z,95885.63
2018-09-21T05:44:06.444Z,95888.86
2018-09-21T05:45:41.921Z,95887.52
2018-09-21T05:47:21.342Z,95891.16
2018-09-21T05:48:56.604Z,95881.05
2018-09-21T05:50:32.360Z,95868.62
2018-09-21T05:52:07.915Z,95879.81
2018-09-21T05:53:43.588Z,95879.61
2018-09-21T05:55:19.937Z,95881.00
2018-09-21T05:56:56.240Z,95881.95
2018-09-21T05:58:32.153Z,95876.30
2018-09-21T06:00:08.615Z,95867.14
2018-09-21T06:01:45.957Z,95867.67
2018-09-21T06:03:21.899Z,95868.62
2018-09-21T06:05:03.363Z,95863.08
2018-09-21T06:06:42.903Z,95849.14
2018-09-21T06:08:22.129Z,95870.00
2018-09-21T06:09:58.646Z,95868.45
2018-09-21T06:11:36.071Z,95868.38
2018-09-21T06:13:13.052Z,95859.12
2018-09-21T06:14:50.361Z,95859.98
2018-09-21T06:16:27.473Z,95863.28
2018-09-21T06:18:02.891Z,95864.03
2018-09-21T06:19:38.450Z,95872.69
2018-09-21T06:21:14.647Z,95874.76
2018-09-21T06:22:50.795Z,95868.58
2018-09-21T06:24:26.447Z,95871.53
2018-09-21T06:26:07.225Z,95868.89
2018-09-21T06:27:42.861Z,95872.30
2018-09-21T06:29:19.569Z,95870.80
2018-09-21T06:30:57.702Z,95863.97
2018-09-21T06:32:33.576Z,95869.22
2018-09-21T06:34:10.240Z,95866.09
2018-09-21T06:35:45.444Z,95869.10
2018-09-21T06:37:21.455Z,95861.66
2018-09-21T06:38:57.763Z,95871.44
2018-09-21T06:40:33.308Z,95871.01
2018-09-21T06:42:11.872Z,95864.59
2018-09-21T06:43:48.377Z,95865.81
2018-09-21T06:45:26.207Z,95857.92
2018-09-21T06:47:03.248Z,95860.92
2018-09-21T06:48:40.072Z,95854.56
2018-09-21T06:50:18.099Z,95853.81
2018-09-21T06:51:54.709Z,95854.99
2018-09-21T06:53:30.568Z,95864.38
2018-09-21T06:55:07.988Z,95867.15
2018-09-21T06:56:47.807Z,95863.42
2018-09-21T06:58:25.082Z,95862.78
2018-09-21T07:00:07.438Z,95855.42
2018-09-21T07:01:46.321Z,95859.90
2018-09-21T07:03:28.290Z,95856.68
2018-09-21T07:05:11.932Z,95865.90
2018-09-21T07:06:47.972Z,95863.38
2018-09-21T07:08:26.343Z,95847.24
2018-09-21T07:10:07.738Z,95865.75
2018-09-21T07:11:47.079Z,95871.08
2018-09-21T07:13:28.621Z,95866.52
2018-09-21T07:15:10.483Z,95869.17
2018-09-21T07:16:47.889Z,95867.90
2018-09-21T07:18:24.608Z,95854.37
2018-09-21T07:20:00.771Z,95837.52
2018-09-21T07:21:37.039Z,95848.95
2018-09-21T07:23:14.206Z,95862.94
2018-09-21T07:24:51.352Z,95847.67
2018-09-21T07:26:27.787Z,95853.56
2018-09-21T07:28:07.748Z,95845.47
2018-09-21T07:29:45.550Z,95853.04
2018-09-21T07:31:22.182Z,95847.72
2018-09-21T07:32:59.341Z,95851.28
2018-09-21T07:34:35.444Z,95866.09
2018-09-21T07:37:13.516Z,95868.16
2018-09-21T07:38:51.706Z,95861.33
2018-09-21T07:40:27.414Z,95875.54
2018-09-21T07:42:04.404Z,95860.51
2018-09-21T07:43:40.777Z,95858.37
2018-09-21T07:45:18.320Z,95876.97
2018-09-21T07:46:56.229Z,95859.47
2018-09-21T07:48:32.527Z,95848.80
2018-09-21T07:50:10.043Z,95839.00
2018-09-21T07:51:47.675Z,95843.25
2018-09-21T07:53:23.423Z,95862.05
2018-09-21T07:55:00.139Z,95867.58
2018-09-21T07:56:35.481Z,95869.72
2018-09-21T07:58:12.580Z,95888.73
2018-09-21T07:59:48.514Z,95880.41
2018-09-21T08:01:26.665Z,95866.22
2018-09-21T08:03:03.751Z,95863.13
2018-09-21T08:06:20.560Z,95890.15
2018-09-21T08:07:58.451Z,95880.88
2018-09-21T08:09:38.812Z,95878.37
2018-09-21T08:11:15.204Z,95870.13
2018-09-21T08:12:51.319Z,95857.64
2018-09-21T08:14:27.828Z,95870.25
2018-09-21T08:16:05.844Z,95877.60
2018-09-21T08:17:41.963Z,95875.13
2018-09-21T08:19:21.216Z,95884.66
2018-09-21T08:21:00.847Z,95868.44
2018-09-21T08:22:38.188Z,95859.47
2018-09-21T08:24:17.496Z,95859.41
2018-09-21T08:25:55.197Z,95864.32
2018-09-21T08:27:37.822Z,95865.82
2018-09-21T08:29:14.452Z,95860.06
2018-09-21T08:30:56.153Z,95870.41
2018-09-21T08:32:33.392Z,95872.13
2018-09-21T08:34:10.206Z,95860.35
2018-09-21T08:35:48.626Z,95854.14
2018-09-21T08:37:29.789Z,95845.67
2018-09-21T08:39:10.369Z,95844.84
2018-09-21T08:40:47.277Z,95843.34
2018-09-21T08:42:24.819Z,95836.82
2018-09-21T08:44:03.620Z,95830.55
2018-09-21T08:45:49.732Z,95822.13
2018-09-21T08:47:38.617Z,95824.27
2018-09-21T08:49:30.251Z,95831.64
2018-09-21T08:51:05.870Z,95827.04
2018-09-21T08:52:42.693Z,95828.77
2018-09-21T08:54:18.666Z,95822.88
2018-09-21T08:55:54.235Z,95831.31
2018-09-21T08:57:29.668Z,95822.56
2018-09-21T08:59:08.953Z,95826.52
2018-09-21T09:00:52.710Z,95828.20
2018-09-21T09:02:29.606Z,95823.83
2018-09-21T09:04:06.511Z,95822.77
2018-09-21T09:05:47.748Z,95814.98
2018-09-21T09:07:24.300Z,95828.31
2018-09-21T09:09:01.193Z,95832.59
2018-09-21T09:10:39.056Z,95832.94
2018-09-21T09:12:16.907Z,95842.06
2018-09-21T09:13:52.806Z,95828.71
2018-09-21T09:15:33.180Z,95854.01
2018-09-21T09:17:11.554Z,95840.66
2018-09-21T09:18:49.707Z,95831.45
2018-09-21T09:20:28.483Z,95838.59
2018-09-21T09:22:06.238Z,95852.83
2018-09-21T09:23:43.911Z,95848.38
2018-09-21T09:25:21.910Z,95844.36
2018-09-21T09:27:02.666Z,95822.28
2018-09-21T09:30:25.378Z,95828.62
2018-09-21T09:32:04.409Z,95829.25
2018-09-21T09:33:46.040Z,95832.60
2018-09-21T09:35:24.501Z,95829.83
2018-09-21T09:37:03.400Z,95821.09
2018-09-21T09:38:40.186Z,95821.41
2018-09-21T09:40:16.701Z,95828.64
2018-09-21T09:41:52.709Z,95840.10
2018-09-21T09:43:34.229Z,95861.81
2018-09-21T09:45:17.003Z,95891.47
2018-09-21T09:46:57.511Z,95935.44
2018-09-21T09:48:42.564Z,95983.63
2018-09-21T09:50:21.940Z,96011.30
2018-09-21T09:51:58.864Z,96029.91
2018-09-21T09:53:38.307Z,96061.33
2018-09-21T09:55:15.615Z,96066.19
2018-09-21T09:56:51.453Z,96076.06
2018-09-21T09:58:29.776Z,96087.20
2018-09-21T10:01:49.364Z,96029.83
2018-09-21T10:03:26.266Z,96022.55
2018-09-21T10:05:04.555Z,96031.88
2018-09-21T10:06:41.651Z,96029.48
2018-09-21T10:08:17.835Z,96033.87
2018-09-21T10:09:53.347Z,96049.77
2018-09-21T10:11:29.450Z,96052.89
2018-09-21T10:13:06.138Z,96066.73
2018-09-21T10:14:42.662Z,96074.66
2018-09-21T10:16:18.019Z,96077.39
2018-09-21T10:17:53.878Z,96079.08
2018-09-21T10:19:30.300Z,96093.67
2018-09-21T10:21:13.532Z,96087.44
2018-09-21T10:22:53.838Z,96082.28
2018-09-21T10:24:30.985Z,96065.12
2018-09-21T10:26:06.624Z,96068.88
2018-09-21T10:27:44.176Z,96073.31
2018-09-21T10:29:21.725Z,96081.75
2018-09-21T10:30:59.765Z,96082.75
2018-09-21T10:32:36.698Z,96087.61
2018-09-21T10:34:15.605Z,96087.08
2018-09-21T10:36:03.552Z,96095.06
2018-09-21T10:38:10.395Z,96096.05
2018-09-21T10:39:45.814Z,96094.69
2018-09-21T10:41:21.302Z,96108.93
2018-09-21T10:42:58.508Z,96105.12
2018-09-21T10:47:04.231Z,96103.75
2018-09-21T10:48:40.044Z,96110.30
2018-09-21T10:50:18.328Z,96110.56
2018-09-21T10:51:55.099Z,96116.48
2018-09-21T10:53:36.138Z,96123.81
2018-09-21T10:55:14.711Z,96111.30
2018-09-21T10:56:51.034Z,96110.66
2018-09-21T10:58:27.527Z,96117.05
2018-09-21T11:00:07.397Z,96114.13
2018-09-21T11:01:46.555Z,96119.27
2018-09-21T11:03:22.976Z,96109.13
2018-09-21T11:05:02.930Z,96106.94
2018-09-21T11:06:42.958Z,96095.05
2018-09-21T11:08:28.796Z,96104.75
2018-09-21T11:10:05.362Z,96107.81
2018-09-21T11:11:43.627Z,96112.88
2018-09-21T11:13:20.495Z,96100.44
2018-09-21T11:14:58.266Z,96106.11
2018-09-21T11:16:37.463Z,96099.54
2018-09-21T11:18:13.748Z,96101.49
2018-09-21T11:19:54.414Z,96086.73
2018-09-21T11:21:54.771Z,96084.31
2018-09-21T11:23:34.029Z,96093.74
2018-09-21T11:25:11.080Z,96084.23
2018-09-21T11:26:47.509Z,96081.89
2018-09-21T11:28:24.157Z,96080.68
2018-09-21T11:30:03.936Z,96088.34
2018-09-21T11:31:41.618Z,96101.66
2018-09-21T11:33:18.787Z,96103.67
2018-09-21T11:35:01.714Z,96116.66
2018-09-21T11:36:41.731Z,96135.89
2018-09-21T11:38:21.439Z,96131.55
2018-09-21T11:39:59.258Z,96130.81
2018-09-21T11:41:35.561Z,96128.50
2018-09-21T11:43:10.568Z,96126.09
2018-09-21T11:44:47.990Z,96129.33
2018-09-21T11:46:23.854Z,96117.95
2018-09-21T11:47:59.139Z,96106.52
2018-09-21T11:49:34.343Z,96108.05
2018-09-21T11:51:10.525Z,96094.33
2018-09-21T11:52:47.739Z,96097.27
2018-09-21T11:54:24.463Z,96092.20
2018-09-21T11:56:01.865Z,96101.19
2018-09-21T11:57:37.343Z,96099.09
2018-09-21T11:59:14.508Z,96097.48
2018-09-21T12:00:49.860Z,96089.36
2018-09-21T12:02:25.278Z,96094.63
2018-09-21T12:04:02.322Z,96100.84
2018-09-21T12:05:40.080Z,96112.30
2018-09-21T12:07:16.312Z,96115.98
2018-09-21T12:08:55.853Z,96122.27
2018-09-21T12:10:32.659Z,96124.13
2018-09-21T12:12:13.984Z,96129.42
2018-09-21T12:13:51.592Z,96133.07
2018-09-21T12:15:29.406Z,96136.59
2018-09-21T12:17:07.614Z,96130.63
2018-09-21T12:18:45.721Z,96138.01
2018-09-21T12:20:23.512Z,96137.50
2018-09-21T12:22:00.069Z,96128.92
2018-09-21T12:23:36.123Z,96133.19
2018-09-21T12:25:12.360Z,96132.02
2018-09-21T12:26:49.378Z,96132.34
2018-09-21T12:28:25.421Z,96129.74
2018-09-21T12:30:01.575Z,96127.77
2018-09-21T12:31:44.249Z,96119.37
2018-09-21T12:33:20.481Z,96124.46
2018-09-21T12:34:57.712Z,96127.89
2018-09-21T12:36:36.560Z,96129.05
2018-09-21T12:38:13.786Z,96113.58
2018-09-21T12:39:51.932Z,96116.81
2018-09-21T12:41:29.454Z,96106.53
2018-09-21T12:43:07.164Z,96120.67
2018-09-21T12:44:46.498Z,96112.13
2018-09-21T12:46:29.516Z,96101.66
2018-09-21T12:48:08.484Z,96112.34
2018-09-21T12:49:46.446Z,96116.48
2018-09-21T12:51:27.547Z,96122.22
2018-09-21T12:53:06.168Z,96123.89
2018-09-21T12:54:49.705Z,96121.55
2018-09-21T12:56:26.869Z,96125.09
2018-09-21T12:58:03.901Z,96129.77
2018-09-21T12:59:39.892Z,96148.06
2018-09-21T13:01:16.379Z,96151.66
2018-09-21T13:02:54.400Z,96146.45
2018-09-21T13:04:36.342Z,96143.00
2018-09-21T13:06:13.394Z,96148.86
2018-09-21T13:07:50.219Z,96147.70
2018-09-21T13:09:26.367Z,96154.95
2018-09-21T13:11:08.271Z,96155.94
2018-09-21T13:12:49.838Z,96149.69
2018-09-21T13:14:28.358Z,96156.06
2018-09-21T13:16:07.616Z,96157.31
2018-09-21T13:17:44.388Z,96155.99
2018-09-21T13:19:20.397Z,96163.09
2018-09-21T13:20:56.464Z,96168.57
2018-09-21T13:22:33.926Z,96170.16
2018-09-21T13:24:10.160Z,96171.58
2018-09-21T13:25:46.276Z,96171.53
2018-09-21T13:27:23.704Z,96189.87
2018-09-21T13:31:20.033Z,96179.02
2018-09-21T13:33:01.732Z,96193.38
2018-09-21T13:34:43.527Z,96184.84
2018-09-21T13:36:20.964Z,96188.73
2018-09-21T13:38:04.693Z,96196.16
2018-09-21T13:39:41.757Z,96196.23
2018-09-21T13:41:20.022Z,96204.13
2018-09-21T13:42:56.366Z,96201.06
2018-09-21T13:44:33.677Z,96208.88
2018-09-21T13:46:11.701Z,96195.58
2018-09-21T13:47:52.043Z,96202.58
2018-09-21T13:49:34.849Z,96216.23
2018-09-21T13:51:13.866Z,96220.64
2018-09-21T13:52:49.859Z,96223.92
2018-09-21T13:54:29.003Z,96218.50
2018-09-21T13:56:05.238Z,96222.58
2018-09-21T13:57:44.384Z,96219.86
2018-09-21T13:59:24.631Z,96217.11
2018-09-21T14:01:06.266Z,96222.42
2018-09-21T14:02:44.518Z,96213.96
2018-09-21T14:04:23.358Z,96216.33
2018-09-21T14:06:05.383Z,96231.24
2018-09-21T14:07:44.491Z,96235.05
2018-09-21T14:09:26.271Z,96238.63
2018-09-21T14:11:12.631Z,96243.68
2018-09-21T14:12:52.386Z,96244.16
2018-09-21T14:14:35.729Z,96251.11
2018-09-21T14:16:11.342Z,96251.30
2018-09-21T14:17:47.172Z,96253.43
2018-09-21T14:19:26.156Z,96254.47
2018-09-21T14:21:02.759Z,96256.65
2018-09-21T14:24:12.886Z,96265.41
2018-09-21T14:25:49.381Z,96256.09
2018-09-21T14:27:27.241Z,96272.42
2018-09-21T14:29:04.473Z,96278.05
2018-09-21T14:30:44.773Z,96269.35
2018-09-21T14:32:22.658Z,96271.09
2018-09-21T14:33:59.769Z,96273.73
2018-09-21T14:35:38.159Z,96275.25
2018-09-21T14:37:16.485Z,96274.48
2018-09-21T14:38:53.994Z,96275.02
2018-09-21T14:40:33.757Z,96274.59
2018-09-21T14:42:15.253Z,96282.06
2018-09-21T14:43:52.340Z,96278.56
2018-09-21T14:45:32.395Z,96285.57
2018-09-21T14:47:12.564Z,96296.12
2018-09-21T14:48:47.907Z,96300.70
2018-09-21T14:50:26.114Z,96301.17
2018-09-21T14:52:02.830Z,96308.22
2018-09-21T14:53:42.838Z,96307.09
2018-09-21T14:55:18.762Z,96301.12
2018-09-21T14:56:56.138Z,96296.25
2018-09-21T14:58:34.014Z,96297.34
2018-09-21T15:00:11.452Z,96299.92
2018-09-21T15:01:49.911Z,96306.91
2018-09-21T15:03:25.839Z,96301.34
2018-09-21T15:05:06.100Z,96306.41
2018-09-21T15:06:42.830Z,96310.36
2018-09-21T15:08:20.370Z,96315.20
2018-09-21T15:09:59.778Z,96331.05
2018-09-21T15:12:01.344Z,96323.66
2018-09-21T15:13:51.889Z,96313.47
2018-09-21T15:15:30.952Z,96318.55
2018-09-21T15:17:17.246Z,96317.23
2018-09-21T15:18:56.779Z,96323.23
2018-09-21T15:20:38.174Z,96317.59
2018-09-21T15:22:19.363Z,96319.94
2018-09-21T15:23:59.669Z,96321.03
2018-09-21T15:25:36.934Z,96333.62
2018-09-21T15:27:15.550Z,96332.26
2018-09-21T15:28:53.699Z,96331.91
2018-09-21T15:30:39.842Z,96341.30
2018-09-21T15:32:17.651Z,96335.27
2018-09-21T15:33:58.339Z,96337.69
2018-09-21T15:35:36.800Z,96340.92
2018-09-21T15:37:17.919Z,96345.80
2018-09-21T15:38:59.535Z,96353.44
2018-09-21T15:40:36.840Z,96359.78
2018-09-21T15:42:18.163Z,96355.95
2018-09-21T15:43:57.151Z,96344.11
2018-09-21T15:45:34.270Z,96347.42
2018-09-21T15:47:12.266Z,96358.66
2018-09-21T15:48:51.684Z,96354.19
2018-09-21T15:50:29.374Z,96350.41
2018-09-21T15:52:10.732Z,96344.67
2018-09-21T15:53:52.604Z,96362.92
2018-09-21T15:55:30.051Z,96364.47
2018-09-21T15:57:09.460Z,96355.78
2018-09-21T15:58:48.923Z,96353.67
2018-09-21T16:00:28.005Z,96363.28
2018-09-21T16:02:08.012Z,96365.06
2018-09-21T16:03:48.733Z,96371.05
2018-09-21T16:05:24.317Z,96359.89
2018-09-21T16:07:03.235Z,96370.16
2018-09-21T16:08:45.698Z,96365.09
2018-09-21T16:10:24.499Z,96370.83
2018-09-21T16:12:02.459Z,96371.59
2018-09-21T16:13:49.368Z,96378.52
2018-09-21T16:15:28.544Z,96380.77
2018-09-21T16:17:11.994Z,96382.77
2018-09-21T16:20:39.945Z,96388.27
2018-09-21T16:22:36.635Z,96397.12
2018-09-21T16:24:15.784Z,96401.67
2018-09-21T16:26:05.256Z,96399.39
2018-09-21T16:27:43.656Z,96412.67
2018-09-21T16:29:20.956Z,96404.00
2018-09-21T16:30:57.637Z,96409.95
2018-09-21T16:32:34.713Z,96421.42
2018-09-21T16:34:15.412Z,96415.95
2018-09-21T16:35:54.737Z,96415.52
2018-09-21T16:37:34.273Z,96417.81
2018-09-21T16:39:12.966Z,96405.63
2018-09-21T16:40:49.329Z,96416.18
2018-09-21T16:42:29.181Z,96414.53
2018-09-21T16:44:07.191Z,96422.73
2018-09-21T16:45:44.818Z,96418.94
2018-09-21T16:47:21.332Z,96427.00
2018-09-21T16:49:00.341Z,96413.92
2018-09-21T16:50:36.862Z,96411.17
2018-09-21T16:52:13.363Z,96424.72
2018-09-21T16:53:51.287Z,96423.35
2018-09-21T16:55:29.799Z,96432.34
2018-09-21T16:57:07.064Z,96433.41
2018-09-21T16:58:45.910Z,96432.52
2018-09-21T17:00:23.996Z,96433.93
2018-09-21T17:02:08.780Z,96439.63
2018-09-21T17:03:48.020Z,96439.34
2018-09-21T17:05:27.489Z,96442.28
2018-09-21T17:07:08.333Z,96433.46
2018-09-21T17:08:44.078Z,96433.67
2018-09-21T17:11:29.056Z,96433.70
2018-09-21T17:13:07.797Z,96440.11
2018-09-21T17:14:49.672Z,96445.28
2018-09-21T17:16:25.605Z,96445.47
2018-09-21T17:18:03.491Z,96445.03
2018-09-21T17:19:46.430Z,96452.82
2018-09-21T17:21:27.145Z,96457.84
2018-09-21T17:23:05.076Z,96463.31
2018-09-21T17:24:42.710Z,96461.38
2018-09-21T17:26:18.764Z,96467.30
2018-09-21T17:28:01.166Z,96465.45
2018-09-21T17:29:37.840Z,96460.61
2018-09-21T17:31:24.677Z,96462.77
2018-09-21T17:33:10.535Z,96467.92
2018-09-21T17:34:57.123Z,96462.02
2018-09-21T17:36:35.287Z,96467.18
2018-09-21T17:38:16.532Z,96471.92
2018-09-21T17:39:54.557Z,96481.48
2018-09-21T17:41:42.527Z,96484.06
2018-09-21T17:45:08.934Z,96494.39
2018-09-21T17:46:45.899Z,96497.70
2018-09-21T17:49:32.936Z,96497.44
2018-09-21T17:51:09.769Z,96510.46
2018-09-21T17:52:45.456Z,96518.84
2018-09-21T17:54:22.546Z,96521.55
2018-09-21T17:56:03.271Z,96519.25
2018-09-21T17:57:43.761Z,96524.27
2018-09-21T17:59:22.015Z,96526.10
2018-09-21T18:01:03.909Z,96528.23
2018-09-21T18:02:40.368Z,96542.80
2018-09-21T18:04:16.448Z,96537.63
2018-09-21T18:05:56.304Z,96536.88
2018-09-21T18:07:32.550Z,96532.75
2018-09-21T18:09:12.408Z,96544.59
2018-09-21T18:10:48.982Z,96536.38
2018-09-21T18:12:28.268Z,96533.80
2018-09-21T18:14:07.300Z,96538.98
2018-09-21T18:15:43.567Z,96550.25
2018-09-21T18:17:21.252Z,96554.48
2018-09-21T18:18:59.728Z,96553.63
2018-09-21T18:20:45.325Z,96554.82
2018-09-21T18:22:23.029Z,96557.42
2018-09-21T18:24:00.580Z,96566.55
2018-09-21T18:25:45.868Z,96571.99
2018-09-21T18:27:28.187Z,96574.27
2018-09-21T18:29:22.581Z,96573.03
2018-09-21T18:31:03.852Z,96578.97
2018-09-21T18:32:55.624Z,96578.66
2018-09-21T18:36:55.545Z,96585.53
2018-09-21T18:38:45.940Z,96591.77
2018-09-21T18:40:25.273Z,96584.92
2018-09-21T18:42:05.469Z,96582.70
2018-09-21T18:43:49.378Z,96591.36
2018-09-21T18:45:33.144Z,96593.95
2018-09-21T18:47:16.797Z,96593.95
2018-09-21T18:48:55.321Z,96596.85
2018-09-21T18:50:32.149Z,96593.67
2018-09-21T18:52:09.064Z,96592.64
2018-09-21T18:53:46.526Z,96591.10
2018-09-21T18:55:23.876Z,96586.98
2018-09-21T18:58:49.020Z,96597.20
2018-09-21T19:00:28.702Z,96605.70
2018-09-21T19:02:08.709Z,96603.27
2018-09-21T19:03:46.538Z,96606.92
2018-09-21T19:05:23.080Z,96612.09
2018-09-21T19:07:06.397Z,96619.56
2018-09-21T19:08:49.212Z,96613.16
2018-09-21T19:10:28.063Z,96625.80
2018-09-21T19:12:15.581Z,96628.67
2018-09-21T19:13:52.828Z,96633.38
2018-09-21T19:15:32.301Z,96621.38
2018-09-21T19:17:12.673Z,96625.64
2018-09-21T19:18:51.690Z,96640.09
2018-09-21T19:20:33.960Z,96637.79
2018-09-21T19:22:15.355Z,96643.58
2018-09-21T19:24:01.473Z,96646.93
2018-09-21T19:25:40.365Z,96650.56
2018-09-21T19:27:18.888Z,96654.52
2018-09-21T19:28:56.292Z,96664.23
2018-09-21T19:30:35.769Z,96666.38
2018-09-21T19:32:14.767Z,96673.05
2018-09-21T19:33:57.306Z,96675.17
2018-09-21T19:35:35.442Z,96679.73
2018-09-21T19:37:15.109Z,96683.98